createdAt,value
2023-01-11T00:03:57.976Z,998.52
2023-01-11T00:08:57.883Z,998.43
2023-01-11T00:13:57.835Z,998.34
2023-01-11T00:18:57.750Z,998.24
2023-01-11T00:23:57.706Z,998.18
2023-01-11T00:28:57.620Z,998.17
2023-01-11T00:33:57.562Z,997.93
2023-01-11T00:38:57.481Z,997.89
2023-01-11T00:43:57.419Z,997.80
2023-01-11T00:48:57.344Z,997.88
2023-01-11T00:53:57.288Z,997.93
2023-01-11T00:58:57.211Z,997.77
2023-01-11T01:03:57.163Z,997.74
2023-01-11T01:08:57.078Z,997.60
2023-01-11T01:13:57.029Z,997.61
2023-01-11T01:18:56.944Z,997.68
2023-01-11T01:23:56.897Z,997.76
2023-01-11T01:28:56.823Z,997.69
2023-01-11T01:33:56.766Z,997.51
2023-01-11T01:38:56.696Z,997.44
2023-01-11T01:43:56.624Z,997.42
2023-01-11T01:48:56.548Z,997.43
2023-01-11T01:53:56.490Z,997.51
2023-01-11T01:58:56.417Z,997.40
2023-01-11T02:03:56.365Z,997.44
2023-01-11T02:08:56.285Z,997.26
2023-01-11T02:13:56.230Z,997.14
2023-01-11T02:18:56.156Z,997.14
2023-01-11T02:23:56.099Z,997.10
2023-01-11T02:28:56.019Z,997.04
2023-01-11T02:33:55.966Z,996.91
2023-01-11T02:38:55.886Z,996.82
2023-01-11T02:43:55.827Z,996.67
2023-01-11T02:48:55.755Z,996.70
2023-01-11T02:53:55.697Z,996.81
2023-01-11T02:58:55.621Z,996.78
2023-01-11T03:03:55.587Z,996.81
2023-01-11T03:08:55.487Z,996.84
2023-01-11T03:13:55.435Z,996.71
2023-01-11T03:18:55.358Z,996.70
2023-01-11T03:23:55.300Z,996.58
2023-01-11T03:28:55.215Z,996.58
2023-01-11T03:33:55.166Z,996.47
2023-01-11T03:38:55.079Z,996.46
2023-01-11T03:43:55.020Z,996.46
2023-01-11T03:48:54.945Z,996.28
2023-01-11T03:53:54.882Z,996.22
2023-01-11T03:58:54.810Z,996.13
2023-01-11T04:03:54.824Z,996.08
2023-01-11T04:08:54.670Z,995.99
2023-01-11T04:13:54.612Z,996.02
2023-01-11T04:18:54.558Z,996.01
2023-01-11T04:23:54.493Z,996.06
2023-01-11T04:28:54.636Z,995.99
2023-01-11T04:33:54.357Z,995.99
2023-01-11T04:38:54.285Z,995.92
2023-01-11T04:43:54.236Z,996.01
2023-01-11T04:48:54.155Z,996.04
2023-01-11T04:53:54.088Z,995.87
2023-01-11T04:58:54.020Z,995.79
2023-01-11T05:03:54.013Z,995.73
2023-01-11T05:08:53.912Z,995.61
2023-01-11T05:13:53.830Z,995.60
2023-01-11T05:18:53.752Z,995.50
2023-01-11T05:23:53.677Z,995.57
2023-01-11T05:28:53.620Z,995.56
2023-01-11T05:33:53.534Z,995.40
2023-01-11T05:38:53.484Z,995.38
2023-01-11T05:43:53.397Z,995.33
2023-01-11T05:48:53.356Z,995.24
2023-01-11T05:53:53.257Z,995.13
2023-01-11T05:58:53.201Z,995.19
2023-01-11T06:03:53.131Z,995.14
2023-01-11T06:08:53.075Z,995.26
2023-01-11T06:13:52.988Z,995.25
2023-01-11T06:18:52.935Z,995.39
2023-01-11T06:23:52.853Z,995.48
2023-01-11T06:28:52.806Z,995.56
2023-01-11T06:33:52.720Z,995.39
2023-01-11T06:38:52.670Z,995.27
2023-01-11T06:43:52.592Z,995.24
2023-01-11T06:48:52.538Z,995.22
2023-01-11T06:53:52.449Z,995.21
2023-01-11T06:58:52.401Z,995.18
2023-01-11T07:03:52.320Z,995.20
2023-01-11T07:08:52.255Z,995.12
2023-01-11T07:13:52.188Z,995.16
2023-01-11T07:18:52.132Z,995.07
2023-01-11T07:23:52.061Z,994.93
2023-01-11T07:28:51.992Z,994.94
2023-01-11T07:33:51.918Z,995.02
2023-01-11T07:38:51.854Z,994.94
2023-01-11T07:43:51.780Z,994.93
2023-01-11T07:48:51.738Z,994.98
2023-01-11T07:53:51.656Z,995.03
2023-01-11T07:58:51.600Z,995.07
2023-01-11T08:03:51.625Z,995.08
2023-01-11T08:08:51.476Z,995.13
2023-01-11T08:13:51.382Z,995.10
2023-01-11T08:18:51.348Z,995.10
2023-01-11T08:23:51.266Z,995.01
2023-01-11T08:28:51.189Z,994.99
2023-01-11T08:33:51.135Z,994.93
2023-01-11T08:38:51.055Z,994.87
2023-01-11T08:43:50.984Z,994.85
2023-01-11T08:48:50.924Z,994.83
2023-01-11T08:53:50.848Z,994.80
2023-01-11T08:58:50.789Z,994.81
2023-01-11T09:03:50.723Z,994.84
2023-01-11T09:08:50.673Z,994.75
2023-01-11T09:13:50.583Z,994.70
2023-01-11T09:18:50.539Z,994.78
2023-01-11T09:23:50.463Z,994.79
2023-01-11T09:28:50.474Z,994.85
2023-01-11T09:33:50.330Z,994.86
2023-01-11T09:38:50.304Z,994.78
2023-01-11T09:43:50.183Z,994.71
2023-01-11T09:48:50.134Z,994.59
2023-01-11T09:53:50.050Z,994.65
2023-01-11T09:58:49.990Z,994.51
2023-01-11T10:03:49.916Z,994.35
2023-01-11T10:19:18.474Z,994.29
2023-01-11T10:23:50.683Z,994.27
2023-01-11T10:28:49.599Z,994.26
2023-01-11T10:33:49.519Z,994.16
2023-01-11T10:38:49.462Z,994.13
2023-01-11T10:43:49.401Z,994.12
2023-01-11T10:48:49.326Z,994.03
2023-01-11T10:53:49.276Z,994.04
2023-01-11T10:58:49.194Z,993.99
2023-01-11T11:03:49.133Z,993.97
2023-01-11T11:08:49.063Z,994.00
2023-01-11T11:13:48.998Z,993.94
2023-01-11T11:18:48.929Z,993.98
2023-01-11T11:23:48.869Z,993.94
2023-01-11T11:28:48.800Z,993.90
2023-01-11T11:33:48.730Z,993.83
2023-01-11T11:38:48.669Z,993.77
2023-01-11T11:43:48.587Z,993.71
2023-01-11T11:48:48.531Z,993.70
2023-01-11T11:53:48.472Z,993.71
2023-01-11T11:58:48.410Z,993.76
2023-01-11T12:03:48.326Z,993.69
2023-01-11T12:08:48.271Z,993.61
2023-01-11T12:13:48.193Z,993.62
2023-01-11T12:18:48.146Z,993.55
2023-01-11T12:23:48.080Z,993.60
2023-01-11T12:28:48.006Z,993.64
2023-01-11T12:33:47.941Z,993.60
2023-01-11T12:38:47.869Z,993.69
2023-01-11T12:43:47.810Z,993.70
2023-01-11T12:48:47.740Z,993.63
2023-01-11T12:53:47.676Z,993.64
2023-01-11T12:58:47.606Z,993.66
2023-01-11T13:03:47.591Z,993.64
2023-01-11T13:08:47.476Z,993.58
2023-01-11T13:13:47.410Z,993.54
2023-01-11T13:18:47.350Z,993.48
2023-01-11T13:23:47.279Z,993.49
2023-01-11T13:28:47.214Z,993.52
2023-01-11T13:33:47.158Z,993.68
2023-01-11T13:38:47.092Z,993.68
2023-01-11T13:43:46.999Z,993.77
2023-01-11T13:48:46.949Z,993.74
2023-01-11T13:53:46.865Z,993.79
2023-01-11T13:58:46.812Z,993.84
2023-01-11T14:03:46.901Z,993.91
2023-01-11T14:08:46.705Z,993.89
2023-01-11T14:13:46.623Z,993.86
2023-01-11T14:18:46.550Z,993.85
2023-01-11T14:23:46.480Z,993.86
2023-01-11T14:28:46.409Z,993.95
2023-01-11T14:33:46.345Z,994.10
2023-01-11T14:38:46.274Z,994.14
2023-01-11T14:43:46.210Z,994.12
2023-01-11T14:48:46.141Z,994.12
2023-01-11T14:53:46.078Z,994.18
2023-01-11T14:58:46.011Z,994.21
2023-01-11T15:03:45.932Z,994.21
2023-01-11T15:08:45.904Z,994.23
2023-01-11T15:13:45.805Z,994.30
2023-01-11T15:18:45.742Z,994.36
2023-01-11T15:23:45.669Z,994.35
2023-01-11T15:28:45.611Z,994.51
2023-01-11T15:33:45.645Z,994.60
2023-01-11T15:38:45.493Z,994.70
2023-01-11T15:43:45.414Z,994.68
2023-01-11T15:48:45.344Z,994.77
2023-01-11T15:53:45.278Z,994.91
2023-01-11T15:58:45.214Z,994.95
2023-01-11T16:03:45.232Z,995.00
2023-01-11T16:08:45.084Z,995.00
2023-01-11T16:13:45.007Z,995.05
2023-01-11T16:18:44.949Z,995.04
2023-01-11T16:23:44.876Z,995.19
2023-01-11T16:28:44.826Z,995.29
2023-01-11T16:33:44.744Z,995.36
2023-01-11T16:38:44.701Z,995.40
2023-01-11T16:43:44.615Z,995.42
2023-01-11T16:48:44.563Z,995.38
2023-01-11T16:53:44.570Z,995.48
2023-01-11T16:58:44.436Z,995.47
2023-01-11T17:03:44.344Z,995.55
2023-01-11T17:08:44.316Z,995.75
2023-01-11T17:13:44.214Z,995.89
2023-01-11T17:18:44.157Z,995.92
2023-01-11T17:23:44.083Z,996.04
2023-01-11T17:28:44.024Z,996.05
2023-01-11T17:33:43.955Z,996.13
2023-01-11T17:38:43.905Z,996.17
2023-01-11T17:43:43.819Z,996.21
2023-01-11T17:48:43.771Z,996.24
2023-01-11T17:53:43.687Z,996.29
2023-01-11T17:58:43.635Z,996.40
2023-01-11T18:03:43.583Z,996.55
2023-01-11T18:08:43.504Z,996.60
2023-01-11T18:13:43.421Z,996.52
2023-01-11T18:18:43.373Z,996.54
2023-01-11T18:23:43.308Z,996.52
2023-01-11T18:28:43.221Z,996.57
2023-01-11T18:33:43.176Z,996.64
2023-01-11T18:38:43.095Z,996.69
2023-01-11T18:43:43.044Z,996.85
2023-01-11T18:48:42.959Z,996.93
2023-01-11T18:53:42.908Z,996.98
2023-01-11T18:58:42.835Z,996.96
2023-01-11T19:03:44.666Z,997.03
2023-01-11T19:08:42.693Z,997.06
2023-01-11T19:13:43.540Z,997.14
2023-01-11T19:18:42.564Z,997.27
2023-01-11T19:23:42.502Z,997.33
2023-01-11T19:28:42.430Z,997.35
2023-01-11T19:33:42.369Z,997.45
2023-01-11T19:38:42.310Z,997.57
2023-01-11T19:43:42.248Z,997.65
2023-01-11T19:48:42.166Z,997.65
2023-01-11T19:53:42.117Z,997.60
2023-01-11T19:58:42.034Z,997.66
2023-01-11T20:03:41.989Z,997.69
2023-01-11T20:08:41.964Z,997.70
2023-01-11T20:13:41.850Z,997.73
2023-01-11T20:18:41.764Z,997.79
2023-01-11T20:23:41.707Z,997.87
2023-01-11T20:28:41.637Z,997.87
2023-01-11T20:33:41.569Z,997.89
2023-01-11T20:38:41.495Z,997.81
2023-01-11T20:43:41.436Z,997.84
2023-01-11T20:48:41.365Z,997.84
2023-01-11T20:53:41.331Z,997.90
2023-01-11T20:58:41.232Z,997.88
2023-01-11T21:03:41.194Z,997.94
2023-01-11T21:08:41.096Z,997.90
2023-01-11T21:13:41.040Z,997.79
2023-01-11T21:18:40.964Z,997.70
2023-01-11T21:23:40.906Z,997.72
2023-01-11T21:28:40.838Z,997.65
2023-01-11T21:33:40.775Z,997.62
2023-01-11T21:38:40.698Z,997.68
2023-01-11T21:43:40.640Z,997.66
2023-01-11T21:48:40.574Z,997.62
2023-01-11T21:53:40.513Z,997.65
2023-01-11T21:58:40.441Z,997.84
2023-01-11T22:03:40.434Z,997.90
2023-01-11T22:08:40.318Z,998.05
2023-01-11T22:13:40.239Z,998.06
2023-01-11T22:18:40.179Z,998.08
2023-01-11T22:23:40.110Z,998.09
2023-01-11T22:28:40.046Z,998.08
2023-01-11T22:33:39.983Z,998.03
2023-01-11T22:38:39.910Z,998.04
2023-01-11T22:43:39.847Z,998.02
2023-01-11T22:48:39.767Z,997.96
2023-01-11T22:53:39.708Z,997.99
2023-01-11T22:58:39.635Z,997.96
2023-01-11T23:03:39.591Z,997.80
2023-01-11T23:08:39.510Z,997.70
2023-01-11T23:13:39.445Z,997.75
2023-01-11T23:18:39.378Z,997.78
2023-01-11T23:23:39.306Z,997.80
2023-01-11T23:28:39.245Z,997.79
2023-01-11T23:33:39.197Z,997.74
2023-01-11T23:38:39.126Z,997.73
2023-01-11T23:43:39.038Z,997.73
2023-01-11T23:48:38.971Z,997.67
2023-01-11T23:53:38.901Z,997.57
2023-01-11T23:58:38.834Z,997.58
